Time;durP1;ratioP1;P1;durP2;ratioP2;P2;SDS_P1;SDS_P2;PMS_P1;PMS_P2;Temp;Humidity;BMP_temperature;BMP_pressure;BME280_temperature;BME280_humidity;BME280_pressure;Samples;Min_cycle;Max_cycle;Signal;HPM_P1;HPM_P2
2023/02/14 00:00:10;;;;;;;13.68;10.75;;;4.60;99.90;;;;;;5015785;28;20501;-45
2023/02/14 00:02:58;;;;;;;15.35;12.20;;;4.70;99.90;;;;;;5030509;28;20037;-47
2023/02/14 00:05:44;;;;;;;16.27;12.30;;;4.60;99.90;;;;;;5030563;28;20116;-46
2023/02/14 00:08:31;;;;;;;17.92;13.48;;;4.70;99.90;;;;;;5029453;28;20025;-53
2023/02/14 00:11:17;;;;;;;13.98;11.15;;;4.70;99.90;;;;;;5022399;28;20089;-51
2023/02/14 00:17:08;;;;;;;18.40;13.65;;;4.80;99.90;;;;;;5027953;28;20025;-45
2023/02/14 00:19:53;;;;;;;12.60;10.63;;;4.70;99.90;;;;;;5028343;28;20104;-47
2023/02/14 00:22:42;;;;;;;16.13;12.18;;;4.70;99.90;;;;;;5012664;28;20041;-48
2023/02/14 00:25:28;;;;;;;16.45;11.63;;;4.70;99.90;;;;;;5029589;28;20103;-46
2023/02/14 00:28:14;;;;;;;15.20;11.60;;;4.70;99.90;;;;;;5029219;28;20041;-49
2023/02/14 00:31:01;;;;;;;15.20;12.07;;;4.80;99.90;;;;;;5011569;28;20021;-46
2023/02/14 00:33:47;;;;;;;16.52;12.48;;;4.80;99.90;;;;;;5021006;28;20111;-43
2023/02/14 00:36:33;;;;;;;16.40;12.27;;;4.80;99.90;;;;;;5029105;28;20030;-46
2023/02/14 00:39:19;;;;;;;16.35;11.65;;;4.70;99.90;;;;;;5015629;28;20029;-44
2023/02/14 00:42:05;;;;;;;15.95;11.93;;;4.80;99.90;;;;;;5017005;28;20037;-47
2023/02/14 00:44:51;;;;;;;15.65;11.82;;;4.80;99.90;;;;;;5029665;28;20076;-44
2023/02/14 00:47:37;;;;;;;16.08;11.88;;;4.80;99.90;;;;;;5030195;28;20029;-46
2023/02/14 00:50:23;;;;;;;15.80;11.98;;;4.80;99.90;;;;;;5011264;28;20538;-46
2023/02/14 00:53:08;;;;;;;16.13;12.77;;;4.80;99.90;;;;;;5011840;28;20033;-44
2023/02/14 00:55:54;;;;;;;18.23;13.60;;;4.80;99.90;;;;;;5029712;28;20057;-46
2023/02/14 00:58:41;;;;;;;19.73;14.82;;;4.80;99.90;;;;;;5030096;28;20037;-46
2023/02/14 01:01:27;;;;;;;21.98;15.65;;;4.70;99.90;;;;;;5031327;28;20025;-47
2023/02/14 01:04:13;;;;;;;18.58;14.57;;;4.70;99.90;;;;;;5031509;28;20029;-45
2023/02/14 01:06:59;;;;;;;19.75;14.85;;;4.70;99.90;;;;;;5033529;28;20030;-44
2023/02/14 01:09:45;;;;;;;24.80;15.85;;;4.70;99.90;;;;;;5018529;28;20397;-47
2023/02/14 01:12:31;;;;;;;16.73;13.65;;;4.80;99.90;;;;;;5033176;28;20465;-45
2023/02/14 01:15:17;;;;;;;18.52;13.90;;;4.80;99.90;;;;;;5033058;28;20409;-45
2023/02/14 01:18:02;;;;;;;19.13;14.27;;;4.80;99.90;;;;;;5033190;28;20025;-45
2023/02/14 01:20:48;;;;;;;16.77;13.43;;;4.80;99.90;;;;;;5032261;28;20026;-48
2023/02/14 01:23:34;;;;;;;16.83;13.70;;;4.80;99.90;;;;;;5031886;28;20462;-51
2023/02/14 01:26:22;;;;;;;18.95;14.80;;;4.70;99.90;;;;;;5033318;28;20488;-45
2023/02/14 01:29:07;;;;;;;20.38;15.13;;;4.80;99.90;;;;;;5032436;28;20018;-46
2023/02/14 01:31:53;;;;;;;20.85;14.98;;;4.80;99.90;;;;;;5033405;28;20065;-45
2023/02/14 01:34:39;;;;;;;21.00;15.30;;;4.80;99.90;;;;;;5033007;28;20026;-47
2023/02/14 01:37:26;;;;;;;20.02;15.70;;;4.80;99.90;;;;;;5032670;28;20029;-45
2023/02/14 01:40:12;;;;;;;21.30;16.38;;;4.80;99.90;;;;;;5033796;28;20517;-47
2023/02/14 01:42:58;;;;;;;23.52;15.93;;;4.80;99.90;;;;;;5033219;28;20032;-44
2023/02/14 01:45:44;;;;;;;21.92;16.77;;;4.70;99.90;;;;;;5033997;28;20036;-46
2023/02/14 01:48:30;;;;;;;21.75;15.85;;;4.60;99.90;;;;;;5032463;28;20013;-47
2023/02/14 01:51:18;;;;;;;21.40;15.98;;;4.60;99.90;;;;;;5018024;28;20021;-49
2023/02/14 01:54:06;;;;;;;20.88;16.55;;;4.70;99.90;;;;;;5032189;28;20105;-46
2023/02/14 01:56:57;;;;;;;23.08;16.25;;;4.70;99.90;;;;;;5032211;28;20029;-45
2023/02/14 01:59:50;;;;;;;19.95;15.35;;;4.80;99.90;;;;;;5032013;28;20029;-45
2023/02/14 02:02:36;;;;;;;19.45;15.88;;;4.70;99.90;;;;;;5031875;28;20053;-48
2023/02/14 02:05:22;;;;;;;21.15;16.00;;;4.70;99.90;;;;;;5031797;28;20116;-48
2023/02/14 02:08:08;;;;;;;20.48;16.73;;;4.60;99.90;;;;;;5031705;28;20022;-46
2023/02/14 02:10:54;;;;;;;20.13;16.27;;;4.60;99.90;;;;;;5033109;28;20033;-45
2023/02/14 02:13:40;;;;;;;21.33;16.23;;;4.60;99.90;;;;;;5031191;28;20032;-44
2023/02/14 02:16:52;;;;;;;22.98;17.35;;;4.70;99.90;;;;;;5031655;28;20033;-48
2023/02/14 02:20:24;;;;;;;20.85;16.02;;;4.80;99.90;;;;;;5032194;28;20076;-45
2023/02/14 02:23:27;;;;;;;19.33;15.85;;;4.90;99.90;;;;;;5031155;28;20028;-48
2023/02/14 02:26:42;;;;;;;24.30;17.20;;;4.90;99.90;;;;;;5030750;28;20469;-46
2023/02/14 02:29:47;;;;;;;23.42;18.30;;;4.90;99.90;;;;;;5031386;28;20025;-44
2023/02/14 02:32:58;;;;;;;23.52;18.98;;;4.90;99.90;;;;;;5031637;28;20103;-49
2023/02/14 02:35:57;;;;;;;22.42;17.35;;;4.90;99.90;;;;;;5030882;28;20069;-46
2023/02/14 02:39:01;;;;;;;23.88;18.00;;;4.90;99.90;;;;;;5017946;28;20037;-45
2023/02/14 02:41:54;;;;;;;25.05;18.88;;;4.90;99.90;;;;;;5031479;28;20025;-45
2023/02/14 02:44:55;;;;;;;23.10;17.52;;;4.80;99.90;;;;;;5031475;28;20040;-45
2023/02/14 02:47:51;;;;;;;21.50;17.92;;;4.80;99.90;;;;;;5031259;28;20041;-46
2023/02/14 02:53:55;;;;;;;24.08;18.27;;;4.70;99.90;;;;;;5025312;28;20079;-44
2023/02/14 02:56:52;;;;;;;23.48;18.33;;;4.70;99.90;;;;;;5023583;28;20451;-44
2023/02/14 02:59:41;;;;;;;26.52;19.38;;;4.70;99.90;;;;;;5030896;28;20043;-45
2023/02/14 03:02:32;;;;;;;24.98;18.23;;;4.70;99.90;;;;;;5032216;28;20029;-47
2023/02/14 03:05:18;;;;;;;22.92;17.27;;;4.70;99.90;;;;;;5031202;28;20025;-47
2023/02/14 03:08:04;;;;;;;24.05;17.77;;;4.70;99.90;;;;;;5030293;28;20028;-47
2023/02/14 03:10:52;;;;;;;25.05;16.88;;;4.60;99.90;;;;;;5031565;28;20039;-45
2023/02/14 03:13:46;;;;;;;24.83;18.15;;;4.60;99.90;;;;;;5022259;28;20486;-46
2023/02/14 03:16:40;;;;;;;26.95;19.05;;;4.60;99.90;;;;;;5031127;28;20061;-49
2023/02/14 03:22:48;;;;;;;32.88;21.77;;;4.60;99.90;;;;;;5026734;28;20446;-46
2023/02/14 03:26:16;;;;;;;31.27;20.80;;;4.50;99.90;;;;;;5017231;28;20489;-45
2023/02/14 03:29:17;;;;;;;31.60;21.48;;;4.50;99.90;;;;;;4998165;28;20041;-46
2023/02/14 03:32:35;;;;;;;32.80;22.40;;;4.50;99.90;;;;;;5016194;28;20075;-44
2023/02/14 03:35:34;;;;;;;45.10;27.27;;;4.40;99.90;;;;;;5030448;28;20036;-46
2023/02/14 03:38:32;;;;;;;37.17;25.00;;;4.40;99.90;;;;;;5023511;28;20030;-44
2023/02/14 03:41:22;;;;;;;35.08;22.90;;;4.40;99.90;;;;;;5031591;28;20018;-50
2023/02/14 03:44:11;;;;;;;35.50;22.35;;;4.30;99.90;;;;;;5030860;28;20026;-47
2023/02/14 03:47:06;;;;;;;33.55;22.90;;;4.30;99.90;;;;;;5015954;28;20051;-51
2023/02/14 03:49:58;;;;;;;33.55;21.92;;;4.30;99.90;;;;;;5029741;28;20040;-44
2023/02/14 03:52:46;;;;;;;35.72;22.63;;;4.30;99.90;;;;;;5029477;28;20018;-45
2023/02/14 03:55:40;;;;;;;32.55;22.00;;;4.30;99.90;;;;;;5030628;28;20053;-46
2023/02/14 03:58:31;;;;;;;35.80;22.67;;;4.40;99.90;;;;;;5030287;28;20052;-47
2023/02/14 04:01:27;;;;;;;34.55;24.17;;;4.40;99.90;;;;;;5015837;28;20450;-47
2023/02/14 04:04:15;;;;;;;;;;;4.40;99.90;;;;;;5030431;28;20029;-46
2023/02/14 04:07:12;;;;;;;33.60;21.30;;;4.40;99.90;;;;;;5030814;28;19917;-50
2023/02/14 04:09:58;;;;;;;75.90;42.70;;;4.40;99.90;;;;;;5030195;28;20120;-45
2023/02/14 04:12:44;;;;;;;35.00;23.98;;;4.50;99.90;;;;;;5030263;28;20030;-46
2023/02/14 04:15:30;;;;;;;33.30;22.23;;;4.50;99.90;;;;;;5030223;28;20029;-45
2023/02/14 04:21:21;;;;;;;34.95;22.10;;;4.50;99.90;;;;;;5029985;28;20045;-47
2023/02/14 04:24:07;;;;;;;31.52;20.80;;;4.50;99.90;;;;;;5030305;28;20037;-47
2023/02/14 04:26:53;;;;;;;69.97;42.58;;;4.50;99.90;;;;;;5030619;28;20026;-44
2023/02/14 04:29:45;;;;;;;34.47;21.17;;;4.50;99.90;;;;;;5029832;28;20120;-45
2023/02/14 04:32:31;;;;;;;34.63;21.35;;;4.50;99.90;;;;;;5029271;28;20030;-45
2023/02/14 04:35:17;;;;;;;35.17;22.42;;;4.40;99.90;;;;;;5030694;28;20029;-44
2023/02/14 04:38:03;;;;;;;36.00;21.13;;;4.40;99.90;;;;;;5032564;28;20034;-47
2023/02/14 04:40:50;;;;;;;34.30;21.05;;;4.40;99.90;;;;;;5032825;28;20038;-46
2023/02/14 04:43:36;;;;;;;32.65;19.70;;;4.40;99.90;;;;;;5033892;28;20056;-49
2023/02/14 04:46:22;;;;;;;35.30;22.25;;;4.40;99.90;;;;;;5033703;28;20422;-53
2023/02/14 04:49:08;;;;;;;36.95;24.13;;;4.30;99.90;;;;;;5015166;28;20643;-46
2023/02/14 04:51:54;;;;;;;37.63;22.58;;;4.30;99.90;;;;;;4989715;28;20061;-44
2023/02/14 04:54:40;;;;;;;30.55;19.48;;;4.30;99.90;;;;;;5035353;28;20028;-44
2023/02/14 04:57:26;;;;;;;33.65;20.80;;;4.30;99.90;;;;;;5032630;28;20026;-47
2023/02/14 05:00:12;;;;;;;35.13;21.83;;;4.30;99.90;;;;;;5033577;28;20025;-45
2023/02/14 05:02:58;;;;;;;30.67;19.73;;;4.40;99.90;;;;;;5032215;28;20111;-45
2023/02/14 05:05:45;;;;;;;32.35;20.33;;;4.40;99.90;;;;;;5019272;28;20140;-45
2023/02/14 05:08:30;;;;;;;34.53;20.75;;;4.40;99.90;;;;;;5033498;28;20664;-46
2023/02/14 05:11:16;;;;;;;29.30;19.25;;;4.40;99.90;;;;;;5034169;28;20041;-44
2023/02/14 05:14:02;;;;;;;33.72;20.67;;;4.40;99.90;;;;;;5033838;28;20544;-44
2023/02/14 05:16:48;;;;;;;34.67;21.95;;;4.40;99.90;;;;;;5032903;28;20034;-47
2023/02/14 05:19:34;;;;;;;30.65;20.00;;;4.50;99.90;;;;;;5032815;28;20509;-46
2023/02/14 05:22:20;;;;;;;69.38;42.50;;;4.50;99.90;;;;;;5033591;28;20480;-44
2023/02/14 05:25:07;;;;;;;39.10;24.55;;;4.50;99.90;;;;;;5032990;28;20026;-44
2023/02/14 05:27:53;;;;;;;33.42;21.73;;;4.60;99.90;;;;;;5018550;28;20041;-44
2023/02/14 05:30:39;;;;;;;36.08;22.73;;;4.50;99.90;;;;;;5033307;28;20029;-44
2023/02/14 05:33:25;;;;;;;31.42;20.45;;;4.50;99.90;;;;;;5032812;28;20025;-45
2023/02/14 05:36:11;;;;;;;33.92;20.38;;;4.40;99.90;;;;;;5032896;28;20037;-45
2023/02/14 05:38:57;;;;;;;29.27;19.95;;;4.40;99.90;;;;;;5033172;28;20030;-52
2023/02/14 05:41:43;;;;;;;24.30;17.50;;;4.40;99.90;;;;;;5031817;28;20053;-45
2023/02/14 05:44:28;;;;;;;24.13;17.42;;;4.40;99.90;;;;;;5032185;28;20414;-44
2023/02/14 05:47:14;;;;;;;26.92;18.33;;;4.40;99.90;;;;;;5018491;28;20033;-45
2023/02/14 05:50:00;;;;;;;26.65;19.25;;;4.30;99.90;;;;;;5033091;28;20025;-47
2023/02/14 05:52:46;;;;;;;27.23;18.77;;;4.20;99.90;;;;;;5033710;28;20049;-50
2023/02/14 05:55:32;;;;;;;28.52;18.48;;;4.10;99.90;;;;;;5033390;28;20105;-53
2023/02/14 05:58:18;;;;;;;28.33;20.13;;;4.10;99.90;;;;;;5032989;28;20029;-52
2023/02/14 06:01:04;;;;;;;33.63;22.00;;;4.00;99.90;;;;;;5032394;28;20030;-52
2023/02/14 06:03:53;;;;;;;28.02;20.42;;;4.00;99.90;;;;;;5031990;28;20033;-48
2023/02/14 06:06:39;;;;;;;29.90;20.50;;;4.00;99.90;;;;;;5031087;28;20442;-50
2023/02/14 06:09:25;;;;;;;33.70;22.85;;;4.00;99.90;;;;;;5031596;28;20076;-50
2023/02/14 06:12:11;;;;;;;29.83;20.25;;;4.00;99.90;;;;;;5026262;28;20028;-52
2023/02/14 06:14:56;;;;;;;34.65;21.83;;;4.10;99.90;;;;;;5032460;28;20026;-53
2023/02/14 06:17:42;;;;;;;31.50;19.90;;;4.10;99.90;;;;;;5033121;28;20115;-47
2023/02/14 06:20:29;;;;;;;30.90;20.80;;;4.20;99.90;;;;;;5017581;28;20099;-48
2023/02/14 06:23:15;;;;;;;27.67;19.85;;;4.20;99.90;;;;;;5016741;28;20033;-49
2023/02/14 06:26:01;;;;;;;33.03;20.73;;;4.30;99.90;;;;;;5031765;28;20049;-48
2023/02/14 06:28:51;;;;;;;32.92;21.60;;;4.30;99.90;;;;;;5013649;28;20026;-51
2023/02/14 06:31:37;;;;;;;29.88;20.38;;;4.30;99.90;;;;;;5013612;28;20037;-49
2023/02/14 06:34:23;;;;;;;28.00;18.65;;;4.20;99.90;;;;;;5015600;28;20502;-48
2023/02/14 06:37:08;;;;;;;26.77;18.20;;;4.10;99.90;;;;;;5031187;28;20029;-49
2023/02/14 06:39:54;;;;;;;26.35;18.48;;;4.00;99.90;;;;;;5012539;28;20076;-51
2023/02/14 06:42:41;;;;;;;31.85;20.63;;;4.10;99.90;;;;;;5025902;28;20040;-50
2023/02/14 06:45:27;;;;;;;30.33;21.40;;;4.10;99.90;;;;;;5031908;28;20112;-50
2023/02/14 06:48:13;;;;;;;29.27;19.90;;;4.10;99.90;;;;;;5027244;28;20022;-47
2023/02/14 06:50:59;;;;;;;27.35;19.10;;;4.10;99.90;;;;;;5030566;28;20033;-50
2023/02/14 06:53:44;;;;;;;25.75;17.88;;;4.20;99.90;;;;;;5031690;28;20044;-49
2023/02/14 06:56:31;;;;;;;24.27;18.85;;;4.10;99.90;;;;;;5031378;28;20033;-48
2023/02/14 06:59:17;;;;;;;24.77;17.88;;;4.10;99.90;;;;;;5029913;28;20034;-48
2023/02/14 07:02:03;;;;;;;35.00;21.10;;;4.10;99.90;;;;;;5031598;28;20038;-49
2023/02/14 07:04:48;;;;;;;24.50;17.35;;;4.20;99.90;;;;;;5031939;28;20040;-48
2023/02/14 07:07:34;;;;;;;24.23;16.55;;;4.10;99.90;;;;;;5030276;28;20120;-54
2023/02/14 07:10:20;;;;;;;23.25;15.82;;;3.70;99.90;;;;;;5031319;28;20496;-54
2023/02/14 07:13:06;;;;;;;21.85;15.98;;;3.60;99.90;;;;;;5030134;28;20445;-51
2023/02/14 07:15:53;;;;;;;21.35;15.70;;;3.50;99.90;;;;;;5031624;28;20053;-49
2023/02/14 07:18:38;;;;;;;25.67;16.23;;;3.40;99.90;;;;;;5031675;28;20095;-49
2023/02/14 07:21:24;;;;;;;25.35;17.75;;;3.50;99.90;;;;;;5030555;28;20595;-47
2023/02/14 07:24:10;;;;;;;26.88;17.42;;;3.60;99.90;;;;;;5030622;28;20029;-47
2023/02/14 07:26:56;;;;;;;25.05;16.83;;;3.70;99.90;;;;;;5030690;28;20025;-47
2023/02/14 07:29:42;;;;;;;26.52;17.60;;;3.70;99.90;;;;;;5031119;28;20033;-47
2023/02/14 07:32:28;;;;;;;26.33;16.75;;;3.70;99.90;;;;;;5025997;28;20399;-47
2023/02/14 07:35:14;;;;;;;23.25;16.00;;;3.70;99.90;;;;;;5030840;28;20021;-46
2023/02/14 07:38:00;;;;;;;23.25;16.27;;;3.70;99.90;;;;;;5029744;28;20040;-51
2023/02/14 07:40:46;;;;;;;22.85;14.88;;;3.50;99.90;;;;;;5030122;28;20040;-49
2023/02/14 07:43:33;;;;;;;23.73;16.65;;;3.40;99.90;;;;;;5018190;28;20102;-49
2023/02/14 07:46:19;;;;;;;24.67;15.90;;;3.40;99.90;;;;;;5028866;28;20037;-53
2023/02/14 07:49:05;;;;;;;23.23;16.02;;;3.50;99.90;;;;;;5030832;28;20091;-49
2023/02/14 07:51:51;;;;;;;24.60;15.13;;;3.50;99.90;;;;;;5030399;28;20032;-53
2023/02/14 07:54:37;;;;;;;22.83;15.15;;;3.70;99.90;;;;;;5030736;28;20036;-51
2023/02/14 07:57:23;;;;;;;26.83;16.23;;;3.70;99.90;;;;;;5029511;28;20045;-53
2023/02/14 08:00:09;;;;;;;21.73;15.05;;;3.70;99.90;;;;;;5029397;28;20025;-48
2023/02/14 08:02:55;;;;;;;25.38;14.90;;;3.60;99.90;;;;;;5030146;28;20057;-44
2023/02/14 08:05:41;;;;;;;26.83;15.27;;;3.60;99.90;;;;;;5020982;28;20029;-45
2023/02/14 08:08:29;;;;;;;21.45;15.32;;;3.70;99.90;;;;;;5030869;28;20022;-44
2023/02/14 08:12:57;;;;;;;22.70;14.57;;;3.70;99.90;;;;;;5032586;28;20064;-47
2023/02/14 08:14:21;;;;;;;18.88;12.95;;;3.70;99.90;;;;;;5033556;28;20057;-44
2023/02/14 08:17:08;;;;;;;18.00;12.80;;;3.70;99.90;;;;;;5017890;28;20033;-44
2023/02/14 08:19:54;;;;;;;20.60;12.82;;;3.80;99.90;;;;;;5034459;28;20057;-49
2023/02/14 08:22:40;;;;;;;19.75;13.60;;;3.80;99.90;;;;;;5034105;28;20041;-46
2023/02/14 08:25:27;;;;;;;15.55;11.30;;;4.10;99.90;;;;;;5034489;28;20080;-49
2023/02/14 08:28:13;;;;;;;13.73;10.07;;;4.20;99.90;;;;;;5019566;28;20121;-51
2023/02/14 08:31:00;;;;;;;15.77;10.65;;;4.20;99.90;;;;;;5019342;28;20028;-46
2023/02/14 08:33:46;;;;;;;17.20;11.40;;;4.10;99.90;;;;;;5033934;28;20486;-49
2023/02/14 08:36:33;;;;;;;21.27;10.63;;;4.10;99.90;;;;;;5033569;28;20539;-45
2023/02/14 08:39:18;;;;;;;15.90;10.27;;;4.10;99.90;;;;;;5021184;28;20026;-45
2023/02/14 08:42:05;;;;;;;20.55;11.73;;;4.20;99.90;;;;;;5034175;28;20109;-45
2023/02/14 08:44:51;;;;;;;14.02;10.68;;;4.30;99.90;;;;;;5035012;28;20112;-44
2023/02/14 08:47:37;;;;;;;15.23;10.52;;;4.40;99.90;;;;;;5033935;28;20034;-45
2023/02/14 08:50:23;;;;;;;14.90;11.63;;;4.50;99.90;;;;;;5034064;28;20543;-49
2023/02/14 08:53:11;;;;;;;16.10;11.20;;;4.60;99.90;;;;;;5033866;28;20033;-45
2023/02/14 08:56:02;;;;;;;17.13;11.35;;;4.60;99.90;;;;;;5034389;28;20029;-46
2023/02/14 08:58:51;;;;;;;18.02;13.27;;;4.60;99.90;;;;;;5035849;28;20029;-47
2023/02/14 09:01:37;;;;;;;16.13;12.05;;;4.60;99.90;;;;;;5020323;28;20034;-50
2023/02/14 09:04:23;;;;;;;15.95;11.15;;;4.70;99.90;;;;;;5014945;28;20056;-44
2023/02/14 09:07:11;;;;;;;17.08;11.77;;;4.80;99.90;;;;;;5028910;28;20442;-48
2023/02/14 09:09:57;;;;;;;16.33;11.88;;;4.90;99.90;;;;;;5033060;28;20078;-44
2023/02/14 09:12:44;;;;;;;16.77;12.85;;;4.90;99.90;;;;;;5034321;28;20026;-48
2023/02/14 09:15:30;;;;;;;18.17;12.98;;;4.90;99.90;;;;;;5032014;28;20034;-48
2023/02/14 09:18:16;;;;;;;17.85;13.13;;;5.00;99.90;;;;;;5018334;28;20604;-45
2023/02/14 09:21:07;;;;;;;20.40;13.88;;;4.90;99.90;;;;;;5032787;28;20433;-45
2023/02/14 09:23:54;;;;;;;20.95;13.20;;;4.90;99.90;;;;;;5018978;28;20036;-45
2023/02/14 09:26:41;;;;;;;22.25;14.48;;;5.00;99.90;;;;;;5032181;28;20025;-45
2023/02/14 09:29:28;;;;;;;20.00;14.10;;;5.10;99.90;;;;;;5032731;28;20060;-48
2023/02/14 09:32:14;;;;;;;20.73;15.00;;;5.00;99.90;;;;;;5031863;28;20083;-45
2023/02/14 09:38:05;;;;;;;19.23;13.80;;;4.90;99.90;;;;;;5032424;28;20033;-47
2023/02/14 09:40:51;;;;;;;20.52;14.05;;;4.90;99.90;;;;;;5033067;28;20029;-50
2023/02/14 09:43:54;;;;;;;19.70;14.00;;;5.00;99.90;;;;;;5032817;28;20127;-45
2023/02/14 09:46:47;;;;;;;20.27;13.98;;;5.20;99.90;;;;;;5031520;28;20022;-45
2023/02/14 09:49:38;;;;;;;18.35;14.05;;;5.40;99.90;;;;;;5032068;28;20018;-49
2023/02/14 09:52:28;;;;;;;19.60;14.10;;;5.40;99.90;;;;;;5032221;28;20029;-45
2023/02/14 09:55:16;;;;;;;21.73;14.43;;;5.40;99.90;;;;;;5027920;28;20082;-46
2023/02/14 09:58:19;;;;;;;24.13;16.77;;;5.60;99.90;;;;;;5033144;28;20028;-45
2023/02/14 10:01:30;;;;;;;25.85;15.85;;;5.90;99.90;;;;;;5033179;28;20577;-46
2023/02/14 10:04:30;;;;;;;26.20;15.73;;;6.10;99.90;;;;;;5031721;28;20406;-46
2023/02/14 10:07:32;;;;;;;25.65;17.38;;;6.20;99.90;;;;;;5031317;28;20430;-46
2023/02/14 10:10:21;;;;;;;25.60;16.83;;;6.40;99.90;;;;;;5032104;28;20371;-50
2023/02/14 10:13:16;;;;;;;24.50;16.52;;;6.40;99.90;;;;;;5031300;28;20026;-44
2023/02/14 10:16:14;;;;;;;27.58;16.98;;;6.50;99.90;;;;;;5011157;28;20026;-47
2023/02/14 10:19:11;;;;;;;21.83;15.90;;;6.70;99.90;;;;;;5021917;28;20102;-50
2023/02/14 10:22:01;;;;;;;23.58;16.30;;;6.80;99.90;;;;;;5031629;28;20037;-48
2023/02/14 10:24:57;;;;;;;25.65;15.95;;;7.00;99.90;;;;;;5032080;28;20049;-50
2023/02/14 10:27:47;;;;;;;24.75;16.65;;;7.10;99.90;;;;;;5031303;28;20154;-49
2023/02/14 10:30:38;;;;;;;26.40;18.38;;;7.30;99.90;;;;;;5016835;28;20512;-49
2023/02/14 10:33:29;;;;;;;24.15;16.58;;;7.30;99.90;;;;;;5032153;28;20029;-49
2023/02/14 10:36:46;;;;;;;28.48;18.25;;;7.30;99.90;;;;;;5032026;28;20409;-50
2023/02/14 10:40:20;;;;;;;24.88;17.67;;;7.20;99.90;;;;;;5033504;28;20494;-47
2023/02/14 10:43:26;;;;;;;23.85;17.38;;;7.40;99.90;;;;;;5001188;28;20044;-49
2023/02/14 10:46:23;;;;;;;26.58;18.40;;;7.40;99.90;;;;;;5003078;28;20116;-48
2023/02/14 10:49:23;;;;;;;26.42;17.08;;;7.50;99.90;;;;;;5028788;28;20033;-52
2023/02/14 10:52:52;;;;;;;22.67;17.85;;;7.60;99.90;;;;;;5031768;28;20021;-55
2023/02/14 10:55:59;;;;;;;26.27;17.15;;;7.80;99.90;;;;;;5012918;28;20107;-47
2023/02/14 10:58:47;;;;;;;21.67;16.35;;;8.10;99.90;;;;;;5032108;28;20036;-51
2023/02/14 11:01:34;;;;;;;25.40;16.98;;;8.40;99.90;;;;;;5030583;28;20084;-51
2023/02/14 11:04:23;;;;;;;29.58;18.83;;;8.60;99.90;;;;;;5030586;28;20030;-49
2023/02/14 11:07:17;;;;;;;30.10;18.80;;;8.60;99.90;;;;;;5032090;28;20024;-52
2023/02/14 11:10:11;;;;;;;27.07;17.87;;;8.40;99.90;;;;;;5031383;28;20036;-50
2023/02/14 11:12:57;;;;;;;26.77;16.92;;;8.50;99.90;;;;;;5031127;28;20368;-50
2023/02/14 11:15:49;;;;;;;22.25;15.55;;;8.60;99.90;;;;;;5031421;28;20036;-50
2023/02/14 11:18:38;;;;;;;26.05;17.92;;;8.80;99.90;;;;;;5022403;28;20026;-50
2023/02/14 11:21:36;;;;;;;25.70;18.00;;;9.00;99.90;;;;;;5019787;28;20025;-49
2023/02/14 11:24:31;;;;;;;23.05;17.60;;;9.10;99.90;;;;;;5024236;28;20053;-48
2023/02/14 11:27:18;;;;;;;28.00;19.10;;;9.00;99.90;;;;;;5030469;28;20490;-47
2023/02/14 11:30:18;;;;;;;32.33;18.50;;;8.90;99.90;;;;;;5012594;28;20034;-48
2023/02/14 11:33:09;;;;;;;31.13;20.77;;;8.60;99.90;;;;;;5012777;28;20029;-52
2023/02/14 11:35:56;;;;;;;27.38;18.33;;;8.70;99.90;;;;;;5012854;28;20038;-49
2023/02/14 11:38:43;;;;;;;30.23;21.20;;;8.70;99.90;;;;;;5012217;28;20037;-52
2023/02/14 11:41:50;;;;;;;24.98;18.08;;;8.80;99.90;;;;;;4997625;28;20112;-48
2023/02/14 11:44:54;;;;;;;22.90;16.85;;;9.00;99.90;;;;;;5012525;28;20030;-47
2023/02/14 11:47:41;;;;;;;24.77;18.27;;;9.00;99.90;;;;;;5012516;28;20491;-50
2023/02/14 11:50:27;;;;;;;26.98;19.33;;;9.00;99.90;;;;;;5012050;28;20462;-47
2023/02/14 11:53:22;;;;;;;25.17;18.30;;;9.00;99.90;;;;;;5012540;28;20030;-46
2023/02/14 11:56:08;;;;;;;23.98;17.63;;;9.10;99.90;;;;;;5012066;28;20407;-47
2023/02/14 11:59:02;;;;;;;26.08;17.17;;;8.90;99.90;;;;;;5011607;28;20137;-46
2023/02/14 12:01:48;;;;;;;23.70;17.33;;;8.90;99.90;;;;;;5012050;28;20034;-49
2023/02/14 12:04:40;;;;;;;27.95;16.67;;;9.00;99.90;;;;;;5012443;28;20038;-47
2023/02/14 12:07:37;;;;;;;23.38;16.58;;;9.00;99.90;;;;;;5011848;28;20379;-49
2023/02/14 12:10:31;;;;;;;21.55;15.82;;;9.00;99.90;;;;;;5011819;28;20029;-48
2023/02/14 12:13:17;;;;;;;19.35;15.77;;;9.00;99.90;;;;;;5012353;28;20062;-52
2023/02/14 12:16:03;;;;;;;20.83;16.13;;;9.20;99.90;;;;;;5011366;28;20022;-53
2023/02/14 12:19:01;;;;;;;31.10;19.00;;;9.30;99.90;;;;;;5011690;28;20030;-51
2023/02/14 12:22:05;;;;;;;25.98;17.70;;;9.40;99.90;;;;;;5011975;28;20045;-47
2023/02/14 12:25:13;;;;;;;23.95;15.80;;;9.40;99.90;;;;;;5012470;28;20022;-49
2023/02/14 12:28:11;;;;;;;25.15;17.20;;;9.40;99.90;;;;;;5011525;28;20061;-48
2023/02/14 12:30:57;;;;;;;24.60;17.65;;;9.40;99.90;;;;;;5011647;28;20065;-46
2023/02/14 12:33:43;;;;;;;25.10;18.05;;;9.50;99.90;;;;;;5010589;28;20022;-48
2023/02/14 12:36:50;;;;;;;23.58;18.25;;;9.50;99.90;;;;;;5009911;28;20406;-47
2023/02/14 12:39:53;;;;;;;26.88;17.75;;;9.50;99.90;;;;;;5011725;28;20049;-49
2023/02/14 12:43:04;;;;;;;26.17;18.55;;;9.40;99.90;;;;;;4996786;28;20033;-49
2023/02/14 12:46:20;;;;;;;25.73;17.83;;;9.50;99.90;;;;;;5010976;28;20018;-52
2023/02/14 12:49:19;;;;;;;20.33;16.50;;;9.60;99.90;;;;;;4997552;28;20044;-53
2023/02/14 12:52:37;;;;;;;24.52;16.13;;;9.80;99.90;;;;;;5010728;28;20025;-46
2023/02/14 12:55:38;;;;;;;22.67;17.45;;;10.00;99.90;;;;;;4991533;28;20037;-47
2023/02/14 12:58:56;;;;;;;23.05;17.42;;;10.20;99.90;;;;;;5012457;28;20529;-50
2023/02/14 13:02:17;;;;;;;20.77;16.50;;;10.20;99.90;;;;;;5013954;28;20051;-49
2023/02/14 13:05:24;;;;;;;21.85;16.40;;;10.30;99.90;;;;;;5013997;28;20026;-50
2023/02/14 13:08:10;;;;;;;21.80;16.63;;;10.30;99.90;;;;;;5014189;28;20038;-48
2023/02/14 13:11:37;;;;;;;26.05;18.55;;;10.40;99.90;;;;;;5013829;28;20026;-50
2023/02/14 13:14:33;;;;;;;27.63;18.13;;;10.50;99.90;;;;;;5015525;28;20026;-48
2023/02/14 13:17:48;;;;;;;25.98;18.50;;;10.60;99.90;;;;;;5000473;28;20033;-49
2023/02/14 13:20:57;;;;;;;24.52;18.70;;;10.80;99.90;;;;;;4999618;28;20026;-55
2023/02/14 13:23:45;;;;;;;23.90;18.83;;;11.00;99.90;;;;;;5015127;28;20033;-49
2023/02/14 13:26:37;;;;;;;25.20;19.20;;;11.00;99.90;;;;;;5013348;28;20036;-46
2023/02/14 13:29:27;;;;;;;25.77;19.98;;;11.10;99.90;;;;;;5014632;28;20034;-52
2023/02/14 13:32:17;;;;;;;29.08;18.45;;;11.20;99.90;;;;;;5013088;28;20037;-48
2023/02/14 13:35:05;;;;;;;26.95;17.67;;;11.30;99.90;;;;;;5014454;28;20022;-49
2023/02/14 13:37:56;;;;;;;27.98;18.38;;;11.50;99.90;;;;;;5000648;28;20376;-48
2023/02/14 13:40:43;;;;;;;28.42;19.10;;;11.60;99.90;;;;;;5014974;28;20034;-52
2023/02/14 13:44:00;;;;;;;31.52;18.92;;;11.60;99.90;;;;;;5014933;28;20026;-50
2023/02/14 13:46:49;;;;;;;32.60;20.75;;;11.80;99.90;;;;;;5013928;28;20117;-48
2023/02/14 13:49:39;;;;;;;23.60;18.00;;;12.00;99.90;;;;;;5014115;28;20017;-46
2023/02/14 13:53:00;;;;;;;26.52;19.50;;;12.20;99.90;;;;;;5013083;28;20410;-52
2023/02/14 13:55:46;;;;;;;25.95;18.48;;;12.40;99.90;;;;;;4953137;28;20539;-53
2023/02/14 13:58:33;;;;;;;25.67;19.20;;;12.50;99.90;;;;;;5013895;28;20030;-51
2023/02/14 14:01:48;;;;;;;33.45;23.40;;;12.60;99.90;;;;;;5012704;28;20395;-50
2023/02/14 14:04:36;;;;;;;28.70;18.70;;;12.70;99.30;;;;;;5012670;28;20026;-51
2023/02/14 14:07:30;;;;;;;30.42;18.65;;;12.70;99.40;;;;;;5013298;28;20281;-55
2023/02/14 14:10:43;;;;;;;29.33;19.40;;;12.70;99.10;;;;;;5013233;28;20030;-51
2023/02/14 14:13:41;;;;;;;28.17;19.63;;;12.40;99.70;;;;;;5012966;28;20053;-47
2023/02/14 14:16:33;;;;;;;27.30;18.77;;;12.60;99.80;;;;;;5012464;28;20026;-51
2023/02/14 14:19:25;;;;;;;25.13;18.80;;;12.90;99.70;;;;;;5013844;28;20030;-51
2023/02/14 14:22:13;;;;;;;25.38;17.50;;;13.10;99.00;;;;;;5014200;28;20418;-48
2023/02/14 14:25:06;;;;;;;21.00;17.95;;;13.40;98.80;;;;;;5012521;28;20026;-52
2023/02/14 14:27:52;;;;;;;22.55;17.75;;;13.70;98.30;;;;;;5013366;28;20025;-49
2023/02/14 14:30:42;;;;;;;26.80;17.52;;;13.90;97.90;;;;;;5013334;28;20022;-52
2023/02/14 14:33:33;;;;;;;27.00;18.48;;;14.20;97.20;;;;;;5012807;28;20025;-54
2023/02/14 14:36:23;;;;;;;20.95;16.70;;;14.30;96.80;;;;;;5012880;28;20113;-54
2023/02/14 14:39:10;;;;;;;23.48;17.02;;;14.40;96.70;;;;;;5013233;28;20022;-52
2023/02/14 14:42:17;;;;;;;20.90;16.10;;;14.70;96.30;;;;;;4999312;28;20058;-51
2023/02/14 14:45:27;;;;;;;19.98;16.40;;;15.10;95.60;;;;;;5012855;28;20096;-51
2023/02/14 14:48:22;;;;;;;25.67;17.80;;;15.70;94.70;;;;;;5012742;28;20117;-50
2023/02/14 14:51:20;;;;;;;20.45;17.38;;;16.30;93.50;;;;;;5012959;28;20015;-54
2023/02/14 14:54:14;;;;;;;23.48;17.65;;;16.90;92.80;;;;;;5011834;28;20625;-55